Time;durP1;ratioP1;P1;durP2;ratioP2;P2;SDS_P1;SDS_P2;PMS_P1;PMS_P2;Temp;Humidity;BMP_temperature;BMP_pressure;BME280_temperature;BME280_humidity;BME280_pressure;Samples;Min_cycle;Max_cycle;Signal;HPM_P1;HPM_P2
2022/10/16 00:02:10;;;;;;;;;;;;;;;12.54;82.96191;100881.4;;;;-75
2022/10/16 00:07:07;;;;;;;;;;;;;;;12.54;82.66016;100878.6;;;;-73
2022/10/16 00:08:35;;;;;;;3.4;0.8;;;;;;;;;;;;;-75
2022/10/16 00:12:08;;;;;;;;;;;;;;;12.54;82.66211;100871.9;;;;-76
2022/10/16 00:17:09;;;;;;;;;;;;;;;12.53;82.63672;100867.2;;;;-74
2022/10/16 00:22:08;;;;;;;;;;;;;;;12.53;82.31445;100873.2;;;;-75
2022/10/16 00:27:08;;;;;;;;;;;;;;;12.53;82.42676;100881.7;;;;-74
2022/10/16 00:32:08;;;;;;;;;;;;;;;12.51;82.34375;100886.4;;;;-77
2022/10/16 00:37:10;;;;;;;;;;;;;;;12.5;81.96484;100883;;;;-75
2022/10/16 00:38:37;;;;;;;3.4;1;;;;;;;;;;;;;-74
2022/10/16 00:42:07;;;;;;;;;;;;;;;12.51;82.14453;100866.1;;;;-74
2022/10/16 00:47:08;;;;;;;;;;;;;;;12.5;82.06445;100853.2;;;;-74
2022/10/16 00:52:09;;;;;;;;;;;;;;;12.49;81.88574;100846.8;;;;-75
2022/10/16 00:57:09;;;;;;;;;;;;;;;12.46;81.87891;100855.7;;;;-75
2022/10/16 01:02:08;;;;;;;;;;;;;;;12.42;81.83984;100860.6;;;;-73
2022/10/16 01:07:13;;;;;;;;;;;;;;;12.41;81.7793;100871.4;;;;-76
2022/10/16 01:08:43;;;;;;;5.3;1.3;;;;;;;;;;;;;-73
2022/10/16 01:12:10;;;;;;;;;;;;;;;12.39;81.68848;100871.8;;;;-74
2022/10/16 01:17:10;;;;;;;;;;;;;;;12.4;81.5459;100877.1;;;;-74
2022/10/16 01:22:09;;;;;;;;;;;;;;;12.38;81.47461;100881.9;;;;-75
2022/10/16 01:27:18;;;;;;;;;;;;;;;12.35;81.46973;100868.3;;;;-75
2022/10/16 01:32:12;;;;;;;;;;;;;;;12.33;81.41113;100872.4;;;;-75
2022/10/16 01:37:11;;;;;;;;;;;;;;;12.32;81.44238;100870.3;;;;-74
2022/10/16 01:38:40;;;;;;;3.9;1.4;;;;;;;;;;;;;-76
2022/10/16 01:42:10;;;;;;;;;;;;;;;12.29;81.32617;100870.6;;;;-75
2022/10/16 01:47:10;;;;;;;;;;;;;;;12.25;81.33008;100884.8;;;;-74
2022/10/16 01:52:09;;;;;;;;;;;;;;;12.21;81.47754;100885.9;;;;-73
2022/10/16 01:57:09;;;;;;;;;;;;;;;12.17;81.49316;100884.5;;;;-73
2022/10/16 02:02:11;;;;;;;;;;;;;;;12.16;81.51367;100891.6;;;;-75
2022/10/16 02:07:08;;;;;;;;;;;;;;;12.13;81.40723;100899.5;;;;-74
2022/10/16 02:08:43;;;;;;;2.1;1;;;;;;;;;;;;;-74
2022/10/16 02:12:17;;;;;;;;;;;;;;;12.14;81.62109;100894;;;;-73
2022/10/16 02:17:14;;;;;;;;;;;;;;;12.18;81.74805;100904.4;;;;-75
2022/10/16 02:22:10;;;;;;;;;;;;;;;12.2;81.88672;100905.4;;;;-74
2022/10/16 02:27:10;;;;;;;;;;;;;;;12.23;81.80273;100909.1;;;;-74
2022/10/16 02:32:10;;;;;;;;;;;;;;;12.2;81.79785;100908.5;;;;-75
2022/10/16 02:37:08;;;;;;;;;;;;;;;12.14;81.6875;100904.2;;;;-75
2022/10/16 02:38:42;;;;;;;2.8;1.2;;;;;;;;;;;;;-75
2022/10/16 02:42:07;;;;;;;;;;;;;;;12.09;81.72168;100909.8;;;;-74
2022/10/16 02:47:07;;;;;;;;;;;;;;;12.05;82.15918;100917.8;;;;-74
2022/10/16 02:52:08;;;;;;;;;;;;;;;12.05;82.51367;100922.8;;;;-74
2022/10/16 02:57:07;;;;;;;;;;;;;;;12.07;82.07422;100924.2;;;;-74
2022/10/16 03:02:07;;;;;;;;;;;;;;;12.11;82.91309;100923.4;;;;-75
2022/10/16 03:07:08;;;;;;;;;;;;;;;12.12;82.99219;100926.9;;;;-74
2022/10/16 03:08:43;;;;;;;2.9;1.2;;;;;;;;;;;;;-74
2022/10/16 03:12:07;;;;;;;;;;;;;;;12.1;82.89941;100933.4;;;;-75
2022/10/16 03:17:07;;;;;;;;;;;;;;;12.1;82.87793;100940.7;;;;-75
2022/10/16 03:22:08;;;;;;;;;;;;;;;12.13;83.62598;100940.8;;;;-74
2022/10/16 03:27:08;;;;;;;;;;;;;;;12.12;83.48242;100944.3;;;;-75
2022/10/16 03:32:07;;;;;;;;;;;;;;;12.14;83.77246;100957;;;;-75
2022/10/16 03:37:08;;;;;;;;;;;;;;;12.17;84.04492;100946.9;;;;-73
2022/10/16 03:38:45;;;;;;;3.3;1.5;;;;;;;;;;;;;-75
2022/10/16 03:42:09;;;;;;;;;;;;;;;12.17;83.76758;100950.4;;;;-75
2022/10/16 03:47:07;;;;;;;;;;;;;;;12.17;83.62402;100965.2;;;;-75
2022/10/16 03:52:07;;;;;;;;;;;;;;;12.15;83.85352;100962.4;;;;-76
2022/10/16 03:57:07;;;;;;;;;;;;;;;12.14;83.47461;100969.3;;;;-75
2022/10/16 04:02:07;;;;;;;;;;;;;;;12.12;83.25879;100980.6;;;;-76
2022/10/16 04:07:07;;;;;;;;;;;;;;;12.12;83.87012;100986.8;;;;-75
2022/10/16 04:08:46;;;;;;;4.4;1.4;;;;;;;;;;;;;-74
2022/10/16 04:12:08;;;;;;;;;;;;;;;12.09;83.23145;100987.1;;;;-75
2022/10/16 04:17:07;;;;;;;;;;;;;;;12.1;83.56543;100992.9;;;;-75
2022/10/16 04:22:07;;;;;;;;;;;;;;;12.11;83.35645;101000.9;;;;-74
2022/10/16 04:27:07;;;;;;;;;;;;;;;12.13;84.05859;100999;;;;-75
2022/10/16 04:32:07;;;;;;;;;;;;;;;12.06;83.43652;100995.2;;;;-74
2022/10/16 04:37:07;;;;;;;;;;;;;;;12.06;83.43457;100997.3;;;;-75
2022/10/16 04:38:47;;;;;;;3.6;1.3;;;;;;;;;;;;;-74
2022/10/16 04:42:08;;;;;;;;;;;;;;;12.07;83.48242;101004.3;;;;-75
2022/10/16 04:47:08;;;;;;;;;;;;;;;12.08;83.43848;101005;;;;-75
2022/10/16 04:52:08;;;;;;;;;;;;;;;12.1;84.00977;101000;;;;-74
2022/10/16 04:57:08;;;;;;;;;;;;;;;12.13;84.07031;101011.5;;;;-75
2022/10/16 05:02:07;;;;;;;;;;;;;;;12.12;83.82617;101013.9;;;;-74
2022/10/16 05:07:07;;;;;;;;;;;;;;;12.12;84.26758;101033.2;;;;-76
2022/10/16 05:08:48;;;;;;;4.3;1.3;;;;;;;;;;;;;-76
2022/10/16 05:12:09;;;;;;;;;;;;;;;12.07;84.21484;101037;;;;-75
2022/10/16 05:17:07;;;;;;;;;;;;;;;12.11;84.52148;101034.1;;;;-75
2022/10/16 05:22:07;;;;;;;;;;;;;;;12.17;85.20801;101041.9;;;;-74
2022/10/16 05:27:07;;;;;;;;;;;;;;;12.14;84.85938;101042.2;;;;-75
2022/10/16 05:32:08;;;;;;;;;;;;;;;12.15;85.29492;101047.6;;;;-75
2022/10/16 05:37:07;;;;;;;;;;;;;;;12.19;85.65723;101056.5;;;;-77
2022/10/16 05:38:49;;;;;;;2.6;1.1;;;;;;;;;;;;;-75
2022/10/16 05:42:07;;;;;;;;;;;;;;;12.24;85.94336;101058;;;;-76
2022/10/16 05:47:07;;;;;;;;;;;;;;;12.28;86.24023;101071;;;;-75
2022/10/16 05:52:07;;;;;;;;;;;;;;;12.32;86.41406;101068.4;;;;-74
2022/10/16 05:57:10;;;;;;;;;;;;;;;12.34;86.73926;101061.3;;;;-76
2022/10/16 06:02:07;;;;;;;;;;;;;;;12.36;86.50977;101079.5;;;;-74
2022/10/16 06:07:07;;;;;;;;;;;;;;;12.38;86.91406;101077.5;;;;-74
2022/10/16 06:08:51;;;;;;;4.5;1.5;;;;;;;;;;;;;-75
2022/10/16 06:12:07;;;;;;;;;;;;;;;12.41;87.18359;101090.1;;;;-76
2022/10/16 06:17:07;;;;;;;;;;;;;;;12.41;87.1416;101079;;;;-76
2022/10/16 06:22:07;;;;;;;;;;;;;;;12.41;86.88672;101081.9;;;;-75
2022/10/16 06:27:08;;;;;;;;;;;;;;;12.43;87.2002;101090.6;;;;-74
2022/10/16 06:32:07;;;;;;;;;;;;;;;12.44;87.21484;101099;;;;-74
2022/10/16 06:37:07;;;;;;;;;;;;;;;12.45;87.22656;101103.3;;;;-74
2022/10/16 06:38:52;;;;;;;8.1;1.4;;;;;;;;;;;;;-75
2022/10/16 06:42:07;;;;;;;;;;;;;;;12.47;87.16504;101113.8;;;;-75
2022/10/16 06:47:08;;;;;;;;;;;;;;;12.47;87.48633;101129.7;;;;-75
2022/10/16 06:52:07;;;;;;;;;;;;;;;12.49;87.93359;101131.4;;;;-74
2022/10/16 06:57:07;;;;;;;;;;;;;;;12.49;88.10059;101146.2;;;;-74
2022/10/16 07:02:07;;;;;;;;;;;;;;;12.47;88.19629;101156;;;;-74
2022/10/16 07:07:08;;;;;;;;;;;;;;;12.47;88.19629;101165.1;;;;-75
2022/10/16 07:08:53;;;;;;;4.8;1.6;;;;;;;;;;;;;-75
2022/10/16 07:12:08;;;;;;;;;;;;;;;12.47;88.24121;101182.5;;;;-75
2022/10/16 07:17:07;;;;;;;;;;;;;;;12.54;88.12012;101191.8;;;;-75
2022/10/16 07:22:07;;;;;;;;;;;;;;;12.57;87.83984;101206.4;;;;-75
2022/10/16 07:27:07;;;;;;;;;;;;;;;12.61;87.85742;101224.9;;;;-75
2022/10/16 07:32:07;;;;;;;;;;;;;;;12.67;87.4707;101229.7;;;;-76
2022/10/16 07:37:07;;;;;;;;;;;;;;;12.76;87.47852;101234.5;;;;-76
2022/10/16 07:38:54;;;;;;;4.3;1.3;;;;;;;;;;;;;-75
2022/10/16 07:42:07;;;;;;;;;;;;;;;12.96;87.24023;101247.4;;;;-75
2022/10/16 07:47:08;;;;;;;;;;;;;;;13.1;86.22363;101249.8;;;;-74
2022/10/16 07:52:09;;;;;;;;;;;;;;;13.14;86.11914;101265.4;;;;-74
2022/10/16 07:57:07;;;;;;;;;;;;;;;13.14;86.05273;101262.4;;;;-76
2022/10/16 08:02:07;;;;;;;;;;;;;;;13.22;86.17969;101271.4;;;;-75
2022/10/16 08:07:07;;;;;;;;;;;;;;;13.35;85.77148;101277.9;;;;-74
2022/10/16 08:08:56;;;;;;;7.9;1.5;;;;;;;;;;;;;-76
2022/10/16 08:12:10;;;;;;;;;;;;;;;13.35;85.37109;101288.7;;;;-76
2022/10/16 08:17:07;;;;;;;;;;;;;;;13.44;85.30078;101299.1;;;;-75
2022/10/16 08:22:07;;;;;;;;;;;;;;;13.78;85.00879;101309.4;;;;-74
2022/10/16 08:27:10;;;;;;;;;;;;;;;14.08;83.37305;101322.8;;;;-76
2022/10/16 08:32:07;;;;;;;;;;;;;;;14.43;82.64746;101322.3;;;;-74
2022/10/16 08:37:10;;;;;;;;;;;;;;;14.77;81.62793;101325.2;;;;-76
2022/10/16 08:38:57;;;;;;;8.3;1.8;;;;;;;;;;;;;-75
2022/10/16 08:42:18;;;;;;;;;;;;;;;14.92;81.03125;101329;;;;-74
2022/10/16 08:47:15;;;;;;;;;;;;;;;15.3;80.68555;101338.8;;;;-76
2022/10/16 08:52:08;;;;;;;;;;;;;;;15.68;78.9209;101355.4;;;;-75
2022/10/16 08:57:12;;;;;;;;;;;;;;;15.74;77.9668;101360;;;;-74
2022/10/16 09:02:17;;;;;;;;;;;;;;;15.65;77.84863;101367;;;;-76
2022/10/16 09:07:08;;;;;;;;;;;;;;;15.52;77.81445;101376.9;;;;-75
2022/10/16 09:09:05;;;;;;;10;1.7;;;;;;;;;;;;;-75
2022/10/16 09:12:12;;;;;;;;;;;;;;;15.61;78.03418;101389.3;;;;-75
2022/10/16 09:17:11;;;;;;;;;;;;;;;15.67;77.03711;101395.6;;;;-74
2022/10/16 09:22:14;;;;;;;;;;;;;;;15.65;77.02051;101403.4;;;;-74
2022/10/16 09:27:07;;;;;;;;;;;;;;;15.58;77.03027;101414.5;;;;-75
2022/10/16 09:32:14;;;;;;;;;;;;;;;15.58;76.73926;101422.8;;;;-75
2022/10/16 09:37:18;;;;;;;;;;;;;;;15.64;75.66309;101422.3;;;;-75
2022/10/16 09:39:10;;;;;;;10.4;1.5;;;;;;;;;;;;;-75
2022/10/16 09:42:08;;;;;;;;;;;;;;;15.62;74.13477;101428.1;;;;-75
2022/10/16 09:47:17;;;;;;;;;;;;;;;15.43;73.81348;101431.4;;;;-75
2022/10/16 09:52:16;;;;;;;;;;;;;;;15.53;72.39258;101426;;;;-76
2022/10/16 09:57:18;;;;;;;;;;;;;;;15.73;70.40527;101427;;;;-74
2022/10/16 10:02:19;;;;;;;;;;;;;;;16.03;68.59766;101433.4;;;;-75
2022/10/16 10:07:07;;;;;;;;;;;;;;;16.16;66.66016;101452;;;;-75
2022/10/16 10:09:04;;;;;;;9.4;1.2;;;;;;;;;;;;;-74
2022/10/16 10:12:08;;;;;;;;;;;;;;;16.42;67.33984;101438.8;;;;-74
2022/10/16 10:17:16;;;;;;;;;;;;;;;16.54;66.98828;101443.6;;;;-74
2022/10/16 10:22:17;;;;;;;;;;;;;;;16.73;66.53223;101453.9;;;;-74
2022/10/16 10:27:11;;;;;;;;;;;;;;;17.01;65.51367;101472.1;;;;-73
2022/10/16 10:32:16;;;;;;;;;;;;;;;17.3;65.84961;101481.8;;;;-75
2022/10/16 10:37:15;;;;;;;;;;;;;;;17.52;64.86719;101489.5;;;;-74
2022/10/16 10:39:06;;;;;;;9.6;1.2;;;;;;;;;;;;;-76
2022/10/16 10:42:12;;;;;;;;;;;;;;;17.39;64.03418;101495.9;;;;-74
2022/10/16 10:47:10;;;;;;;;;;;;;;;17.48;64.03613;101503.9;;;;-74
2022/10/16 10:52:14;;;;;;;;;;;;;;;17.55;63.91113;101515.6;;;;-76
2022/10/16 10:57:13;;;;;;;;;;;;;;;17.64;63.3916;101523.4;;;;-75
2022/10/16 11:02:14;;;;;;;;;;;;;;;17.73;63.26953;101526.4;;;;-75
2022/10/16 11:07:08;;;;;;;;;;;;;;;17.88;63.61914;101528.4;;;;-72
2022/10/16 11:09:12;;;;;;;6.7;1.3;;;;;;;;;;;;;-73
2022/10/16 11:12:10;;;;;;;;;;;;;;;18.06;63.02148;101526.8;;;;-73
2022/10/16 11:17:11;;;;;;;;;;;;;;;18.23;63.37598;101527;;;;-72
2022/10/16 11:22:10;;;;;;;;;;;;;;;18.22;62.12793;101539.3;;;;-73
2022/10/16 11:27:12;;;;;;;;;;;;;;;18.04;61.1875;101540.4;;;;-73
2022/10/16 11:32:10;;;;;;;;;;;;;;;18.02;63.02832;101545.1;;;;-73
2022/10/16 11:37:10;;;;;;;;;;;;;;;18.06;62.24219;101558;;;;-72
2022/10/16 11:39:13;;;;;;;9.1;1.2;;;;;;;;;;;;;-72
2022/10/16 11:42:12;;;;;;;;;;;;;;;18.25;62.77832;101555.6;;;;-76
2022/10/16 11:47:13;;;;;;;;;;;;;;;18.22;63.30664;101570.2;;;;-76
2022/10/16 11:52:11;;;;;;;;;;;;;;;18.22;63.0127;101562;;;;-75
2022/10/16 11:57:16;;;;;;;;;;;;;;;18.19;62.50879;101579.8;;;;-77
2022/10/16 12:02:17;;;;;;;;;;;;;;;18.12;62.18359;101578.5;;;;-76
2022/10/16 12:07:11;;;;;;;;;;;;;;;18.11;65.94922;101573.1;;;;-76
2022/10/16 12:09:17;;;;;;;6.2;1;;;;;;;;;;;;;-77
2022/10/16 12:12:07;;;;;;;;;;;;;;;18.1;62.92676;101576.2;;;;-76
2022/10/16 12:17:09;;;;;;;;;;;;;;;18.2;62.51074;101590;;;;-76
2022/10/16 12:22:07;;;;;;;;;;;;;;;18.18;61.9873;101590.8;;;;-76
2022/10/16 12:27:08;;;;;;;;;;;;;;;18.19;61.63574;101587.8;;;;-75
2022/10/16 12:32:08;;;;;;;;;;;;;;;18.04;61.11914;101600.3;;;;-74
2022/10/16 12:37:16;;;;;;;;;;;;;;;18.02;60.56152;101604.3;;;;-76
2022/10/16 12:39:22;;;;;;;9.5;1.1;;;;;;;;;;;;;-76
2022/10/16 12:42:24;;;;;;;;;;;;;;;18.1;63.68555;101603.3;;;;-75
2022/10/16 12:47:07;;;;;;;;;;;;;;;18.29;61.20996;101605.3;;;;-76
2022/10/16 12:52:07;;;;;;;;;;;;;;;18.18;60.68457;101593.1;;;;-76
2022/10/16 12:57:22;;;;;;;;;;;;;;;18.24;60.19434;101606.1;;;;-76
2022/10/16 13:02:19;;;;;;;;;;;;;;;18.16;59.57227;101616.1;;;;-76
2022/10/16 13:07:18;;;;;;;;;;;;;;;18.25;59.27832;101611;;;;-74
2022/10/16 13:09:22;;;;;;;8.1;1.3;;;;;;;;;;;;;-74
2022/10/16 13:12:27;;;;;;;;;;;;;;;18.19;59.32813;101606.1;;;;-75
2022/10/16 13:17:13;;;;;;;;;;;;;;;18.18;59.75586;101615.6;;;;-76
2022/10/16 13:22:14;;;;;;;;;;;;;;;18.17;59.6416;101619.4;;;;-74
2022/10/16 13:27:11;;;;;;;;;;;;;;;18.24;60.84082;101621;;;;-74
2022/10/16 13:32:11;;;;;;;;;;;;;;;18.22;60.61035;101626.1;;;;-74
2022/10/16 13:37:20;;;;;;;;;;;;;;;18.16;60.93066;101631.3;;;;-74
2022/10/16 13:39:25;;;;;;;7.5;1.1;;;;;;;;;;;;;-75
2022/10/16 13:42:15;;;;;;;;;;;;;;;18.11;60.66504;101634.9;;;;-73
2022/10/16 13:47:07;;;;;;;;;;;;;;;18.08;61.2373;101642.9;;;;-74
2022/10/16 13:52:08;;;;;;;;;;;;;;;17.94;61.19629;101653.3;;;;-75
2022/10/16 13:57:12;;;;;;;;;;;;;;;17.89;62.15039;101660.8;;;;-75
2022/10/16 14:02:13;;;;;;;;;;;;;;;17.82;62.74023;101663.5;;;;-75
2022/10/16 14:07:07;;;;;;;;;;;;;;;17.79;63.11035;101665.6;;;;-76
2022/10/16 14:09:23;;;;;;;5.8;0.9;;;;;;;;;;;;;-76
2022/10/16 14:12:14;;;;;;;;;;;;;;;17.77;63.38965;101674.3;;;;-74
2022/10/16 14:17:07;;;;;;;;;;;;;;;17.76;63.98633;101674.4;;;;-74
2022/10/16 14:22:17;;;;;;;;;;;;;;;17.75;63.77051;101675.4;;;;-74
2022/10/16 14:27:18;;;;;;;;;;;;;;;17.71;63.61719;101675.4;;;;-74
2022/10/16 14:32:09;;;;;;;;;;;;;;;17.66;63.79102;101665.5;;;;-73
2022/10/16 14:37:10;;;;;;;;;;;;;;;17.61;64.26953;101663.4;;;;-74
2022/10/16 14:39:31;;;;;;;4.2;0.7;;;;;;;;;;;;;-74
2022/10/16 14:42:07;;;;;;;;;;;;;;;17.55;64.56641;101667.6;;;;-75
2022/10/16 14:47:21;;;;;;;;;;;;;;;17.48;64.39746;101681.1;;;;-75
2022/10/16 14:52:09;;;;;;;;;;;;;;;17.4;65.12012;101673.5;;;;-74
2022/10/16 14:57:08;;;;;;;;;;;;;;;17.33;65.31348;101681.6;;;;-74
2022/10/16 15:02:18;;;;;;;;;;;;;;;17.26;66.08203;101683.2;;;;-74
2022/10/16 15:07:07;;;;;;;;;;;;;;;17.19;66.30762;101680.6;;;;-75
2022/10/16 15:09:26;;;;;;;5.2;0.9;;;;;;;;;;;;;-75
2022/10/16 15:12:10;;;;;;;;;;;;;;;17.12;66.79395;101686.5;;;;-77
2022/10/16 15:17:08;;;;;;;;;;;;;;;17.04;66.63574;101676.8;;;;-75
2022/10/16 15:22:07;;;;;;;;;;;;;;;16.98;67.32422;101686.4;;;;-74
2022/10/16 15:27:07;;;;;;;;;;;;;;;16.9;67.57324;101690;;;;-74
2022/10/16 15:32:07;;;;;;;;;;;;;;;16.83;67.97852;101691.4;;;;-76
2022/10/16 15:37:11;;;;;;;;;;;;;;;16.75;67.8877;101691.6;;;;-75
2022/10/16 15:39:28;;;;;;;5.4;0.9;;;;;;;;;;;;;-76
2022/10/16 15:42:07;;;;;;;;;;;;;;;16.67;68.33789;101686.8;;;;-74
2022/10/16 15:47:07;;;;;;;;;;;;;;;16.58;68.58301;101676.1;;;;-75
2022/10/16 15:52:07;;;;;;;;;;;;;;;16.49;68.4209;101691.2;;;;-73
2022/10/16 15:57:07;;;;;;;;;;;;;;;16.39;68.63086;101694.7;;;;-75
2022/10/16 16:02:07;;;;;;;;;;;;;;;16.29;68.59277;101693.5;;;;-74
2022/10/16 16:07:08;;;;;;;;;;;;;;;16.2;68.76953;101695;;;;-73
2022/10/16 16:09:32;;;;;;;6;1.1;;;;;;;;;;;;;-74
2022/10/16 16:12:07;;;;;;;;;;;;;;;16.08;68.95508;101701.1;;;;-74
2022/10/16 16:17:08;;;;;;;;;;;;;;;15.97;68.8125;101705.6;;;;-75
2022/10/16 16:22:10;;;;;;;;;;;;;;;15.86;68.78516;101706.5;;;;-74
2022/10/16 16:27:07;;;;;;;;;;;;;;;15.73;68.87695;101712.8;;;;-75
2022/10/16 16:32:07;;;;;;;;;;;;;;;15.61;68.98242;101714;;;;-74
2022/10/16 16:37:07;;;;;;;;;;;;;;;15.48;68.87207;101715;;;;-75
2022/10/16 16:39:33;;;;;;;4.4;1.4;;;;;;;;;;;;;-75
2022/10/16 16:42:07;;;;;;;;;;;;;;;15.34;68.83887;101724.8;;;;-74
2022/10/16 16:47:07;;;;;;;;;;;;;;;15.2;69.09766;101722.7;;;;-74
2022/10/16 16:52:07;;;;;;;;;;;;;;;15.06;69.34473;101722.6;;;;-74
2022/10/16 16:57:07;;;;;;;;;;;;;;;14.95;69.46191;101731.5;;;;-75
2022/10/16 17:02:07;;;;;;;;;;;;;;;14.85;69.47949;101723.7;;;;-75
2022/10/16 17:07:07;;;;;;;;;;;;;;;14.77;69.63477;101734.9;;;;-75
2022/10/16 17:09:35;;;;;;;5.2;1.7;;;;;;;;;;;;;-75
2022/10/16 17:12:07;;;;;;;;;;;;;;;14.68;69.76563;101740.3;;;;-75
2022/10/16 17:17:07;;;;;;;;;;;;;;;14.61;69.82129;101751.2;;;;-76
2022/10/16 17:22:07;;;;;;;;;;;;;;;14.53;69.9668;101754.1;;;;-75
2022/10/16 17:27:07;;;;;;;;;;;;;;;14.45;70.07715;101758.8;;;;-75
2022/10/16 17:32:07;;;;;;;;;;;;;;;14.38;70.13379;101763.4;;;;-74
2022/10/16 17:37:07;;;;;;;;;;;;;;;14.34;70.10449;101773.2;;;;-76
2022/10/16 17:39:37;;;;;;;5.7;1.9;;;;;;;;;;;;;-74
2022/10/16 17:42:07;;;;;;;;;;;;;;;14.28;70.25293;101765.6;;;;-75
2022/10/16 17:47:07;;;;;;;;;;;;;;;14.23;70.19922;101760.4;;;;-74
2022/10/16 17:52:07;;;;;;;;;;;;;;;14.19;70.10352;101760.6;;;;-76
2022/10/16 17:57:07;;;;;;;;;;;;;;;14.13;69.38867;101766.6;;;;-75
2022/10/16 18:02:07;;;;;;;;;;;;;;;14.07;69.94922;101774.7;;;;-75
2022/10/16 18:07:07;;;;;;;;;;;;;;;14.01;70.05273;101776;;;;-74
2022/10/16 18:09:38;;;;;;;5.8;2.3;;;;;;;;;;;;;-75
2022/10/16 18:12:10;;;;;;;;;;;;;;;13.96;69.77539;101779.1;;;;-76
2022/10/16 18:17:07;;;;;;;;;;;;;;;13.91;69.99219;101776.1;;;;-74
2022/10/16 18:22:07;;;;;;;;;;;;;;;13.87;69.90625;101781.9;;;;-75
2022/10/16 18:27:09;;;;;;;;;;;;;;;13.83;69.90039;101781.6;;;;-74
2022/10/16 18:32:07;;;;;;;;;;;;;;;13.78;70.09277;101791.4;;;;-75
2022/10/16 18:37:08;;;;;;;;;;;;;;;13.76;69.92285;101783.7;;;;-76
2022/10/16 18:39:40;;;;;;;8.8;2.8;;;;;;;;;;;;;-75
2022/10/16 18:42:07;;;;;;;;;;;;;;;13.74;70.08691;101779.4;;;;-75
2022/10/16 18:47:07;;;;;;;;;;;;;;;13.72;70.19629;101780.9;;;;-74
2022/10/16 18:52:07;;;;;;;;;;;;;;;13.71;70.3623;101783.4;;;;-79
2022/10/16 18:57:07;;;;;;;;;;;;;;;13.69;70.35938;101801;;;;-75
2022/10/16 19:02:07;;;;;;;;;;;;;;;13.66;70.4209;101809.9;;;;-75
2022/10/16 19:07:07;;;;;;;;;;;;;;;13.64;70.51855;101807.4;;;;-75
2022/10/16 19:09:42;;;;;;;5.8;2.1;;;;;;;;;;;;;-75
2022/10/16 19:12:08;;;;;;;;;;;;;;;13.64;70.49609;101803.6;;;;-75
2022/10/16 19:17:07;;;;;;;;;;;;;;;13.62;70.41504;101804.5;;;;-74
2022/10/16 19:22:26;;;;;;;;;;;;;;;13.59;70.75684;101804.1;;;;-75
2022/10/16 19:27:07;;;;;;;;;;;;;;;13.58;70.64355;101800.3;;;;-74
2022/10/16 19:32:07;;;;;;;;;;;;;;;13.58;71.06836;101785.9;;;;-75
2022/10/16 19:37:09;;;;;;;;;;;;;;;13.59;70.78906;101784;;;;-74
2022/10/16 19:39:44;;;;;;;5.9;1.9;;;;;;;;;;;;;-74
2022/10/16 19:42:08;;;;;;;;;;;;;;;13.59;70.91211;101786.1;;;;-75
2022/10/16 19:47:07;;;;;;;;;;;;;;;13.56;71.08594;101783.9;;;;-76
2022/10/16 19:52:07;;;;;;;;;;;;;;;13.56;71.05273;101778.6;;;;-74
2022/10/16 19:57:08;;;;;;;;;;;;;;;13.53;71.1709;101760.4;;;;-76
2022/10/16 20:02:07;;;;;;;;;;;;;;;13.52;71.41602;101747.2;;;;-78
2022/10/16 20:07:10;;;;;;;;;;;;;;;13.49;71.32129;101737.7;;;;-75
2022/10/16 20:09:45;;;;;;;5.1;1.6;;;;;;;;;;;;;-75
2022/10/16 20:12:08;;;;;;;;;;;;;;;13.5;71.53516;101733;;;;-75
2022/10/16 20:17:08;;;;;;;;;;;;;;;13.46;71.61914;101734.7;;;;-77
2022/10/16 20:22:07;;;;;;;;;;;;;;;13.47;71.81055;101737.9;;;;-75
2022/10/16 20:27:08;;;;;;;;;;;;;;;13.45;71.66016;101751.1;;;;-76
2022/10/16 20:32:07;;;;;;;;;;;;;;;13.43;71.62598;101749.7;;;;-76
2022/10/16 20:37:10;;;;;;;;;;;;;;;13.45;71.61719;101757;;;;-75
2022/10/16 20:39:46;;;;;;;6;1.6;;;;;;;;;;;;;-74
2022/10/16 20:42:07;;;;;;;;;;;;;;;13.41;71.52051;101780.2;;;;-74
2022/10/16 20:47:11;;;;;;;;;;;;;;;13.41;71.72168;101788.5;;;;-74
2022/10/16 20:52:07;;;;;;;;;;;;;;;13.42;71.89063;101793;;;;-74
2022/10/16 20:57:07;;;;;;;;;;;;;;;13.4;71.67383;101795.6;;;;-75
2022/10/16 21:02:07;;;;;;;;;;;;;;;13.37;71.55957;101779.5;;;;-74
2022/10/16 21:07:07;;;;;;;;;;;;;;;13.36;71.74805;101775.8;;;;-74
2022/10/16 21:09:47;;;;;;;3.7;1.4;;;;;;;;;;;;;-73
2022/10/16 21:12:07;;;;;;;;;;;;;;;13.34;71.67773;101769;;;;-74
2022/10/16 21:17:07;;;;;;;;;;;;;;;13.36;71.92676;101755.1;;;;-74
2022/10/16 21:22:07;;;;;;;;;;;;;;;13.33;71.83301;101760.9;;;;-74
2022/10/16 21:27:10;;;;;;;;;;;;;;;13.32;71.97461;101760.9;;;;-73
2022/10/16 21:32:07;;;;;;;;;;;;;;;13.29;71.88086;101759.6;;;;-75
2022/10/16 21:42:27;;;;;;;;;;;;;;;13.27;72.00098;101727.4;;;;-76
2022/10/16 22:30:09;;;;;;;;;;;;;;;12.97;72.19727;101727.5;;;;-75
2022/10/16 23:31:37;;;;;;;;;;;;;;;12.85;72.58887;101707.5;;;;-76
